createdAt,value
2022-12-08T00:01:23.427Z,1.60
2022-12-08T00:03:52.382Z,1.57
2022-12-08T00:06:41.856Z,1.70
2022-12-08T00:09:24.980Z,1.57
2022-12-08T00:11:54.059Z,1.70
2022-12-08T00:14:24.226Z,1.80
2022-12-08T00:16:52.472Z,1.87
2022-12-08T00:19:20.766Z,1.90
2022-12-08T00:21:49.210Z,2.50
2022-12-08T00:24:18.877Z,2.50
2022-12-08T00:26:47.261Z,2.70
2022-12-08T00:29:17.521Z,3.10
2022-12-08T00:31:46.010Z,3.37
2022-12-08T00:34:14.332Z,3.13
2022-12-08T00:36:42.618Z,3.70
2022-12-08T00:39:11.185Z,3.77
2022-12-08T00:41:58.708Z,3.30
2022-12-08T00:44:27.019Z,3.30
2022-12-08T00:46:55.258Z,3.20
2022-12-08T00:49:23.689Z,3.80
2022-12-08T00:51:51.948Z,3.67
2022-12-08T00:54:20.162Z,3.50
2022-12-08T00:56:49.673Z,4.00
2022-12-08T00:59:17.866Z,2.93
2022-12-08T01:01:46.503Z,1.40
2022-12-08T01:04:16.078Z,1.80
2022-12-08T01:06:44.319Z,1.70
2022-12-08T01:09:13.092Z,1.47
2022-12-08T01:11:41.273Z,1.50
2022-12-08T01:14:10.796Z,1.40
2022-12-08T01:16:41.399Z,1.53
2022-12-08T01:19:11.033Z,1.87
2022-12-08T01:21:39.198Z,1.40
2022-12-08T01:24:07.996Z,1.60
2022-12-08T01:26:36.182Z,1.70
2022-12-08T01:29:04.322Z,2.00
2022-12-08T01:31:33.779Z,2.03
2022-12-08T01:34:01.940Z,2.07
2022-12-08T01:36:30.984Z,1.90
2022-12-08T01:39:00.162Z,1.33
2022-12-08T01:41:30.318Z,1.43
2022-12-08T01:44:00.214Z,1.47
2022-12-08T01:46:29.587Z,1.00
2022-12-08T01:49:03.493Z,0.57
2022-12-08T01:51:32.642Z,0.67
2022-12-08T01:54:00.833Z,0.60
2022-12-08T01:56:33.271Z,0.70
2022-12-08T01:59:01.700Z,0.87
2022-12-08T02:01:30.078Z,1.00
2022-12-08T02:04:00.618Z,0.73
2022-12-08T02:06:30.413Z,0.90
2022-12-08T02:08:59.520Z,1.37
2022-12-08T02:11:27.705Z,0.57
2022-12-08T02:13:56.219Z,1.07
2022-12-08T02:16:31.701Z,0.63
2022-12-08T02:19:29.816Z,0.73
2022-12-08T02:21:57.233Z,0.63
2022-12-08T02:24:30.957Z,0.87
2022-12-08T02:27:15.283Z,0.83
2022-12-08T02:30:02.347Z,0.70
2022-12-08T02:32:41.950Z,0.70
2022-12-08T02:35:13.388Z,0.53
2022-12-08T02:37:44.360Z,0.50
2022-12-08T02:40:16.236Z,0.70
2022-12-08T02:42:46.260Z,0.60
2022-12-08T02:45:16.464Z,0.57
2022-12-08T02:47:44.959Z,0.63
2022-12-08T02:50:14.541Z,0.63
2022-12-08T02:52:46.681Z,0.60
2022-12-08T02:55:26.655Z,0.50
2022-12-08T02:58:05.548Z,0.80
2022-12-08T03:00:37.457Z,0.70
2022-12-08T03:03:11.117Z,0.73
2022-12-08T03:05:47.446Z,0.80
2022-12-08T03:08:18.427Z,0.70
2022-12-08T03:10:48.714Z,0.67
2022-12-08T03:13:18.156Z,1.10
2022-12-08T03:15:48.451Z,1.10
2022-12-08T03:18:17.779Z,0.73
2022-12-08T03:20:48.690Z,0.90
2022-12-08T03:23:18.180Z,0.90
2022-12-08T03:25:50.237Z,1.00
2022-12-08T03:28:18.411Z,1.10
2022-12-08T03:30:49.918Z,0.73
2022-12-08T03:33:21.409Z,0.60
2022-12-08T03:35:51.767Z,1.00
2022-12-08T03:38:19.923Z,0.83
2022-12-08T03:41:08.902Z,0.80
2022-12-08T03:43:37.087Z,0.70
2022-12-08T03:46:05.302Z,0.70
2022-12-08T03:48:33.482Z,0.73
2022-12-08T03:51:03.019Z,0.70
2022-12-08T03:53:31.149Z,1.20
2022-12-08T03:55:59.309Z,1.10
2022-12-08T03:58:27.457Z,1.40
2022-12-08T04:00:55.603Z,1.20
2022-12-08T04:03:23.874Z,0.80
2022-12-08T04:05:52.977Z,1.20
2022-12-08T04:08:22.520Z,0.70
2022-12-08T04:10:50.700Z,0.60
2022-12-08T04:13:18.881Z,0.63
2022-12-08T04:15:47.567Z,0.63
2022-12-08T04:18:16.153Z,0.70
2022-12-08T04:20:45.133Z,0.80
2022-12-08T04:23:13.711Z,0.90
2022-12-08T04:25:43.312Z,0.53
2022-12-08T04:28:11.616Z,0.60
2022-12-08T04:30:39.747Z,0.60
2022-12-08T04:33:08.193Z,0.60
2022-12-08T04:35:36.352Z,0.70
2022-12-08T04:38:04.528Z,0.53
2022-12-08T04:40:33.479Z,0.90
2022-12-08T04:43:03.005Z,0.57
2022-12-08T04:45:31.167Z,0.70
2022-12-08T04:47:59.893Z,0.60
2022-12-08T04:50:28.107Z,0.53
2022-12-08T04:52:56.299Z,0.50
2022-12-08T04:55:24.496Z,0.60
2022-12-08T04:57:52.764Z,0.67
2022-12-08T05:00:22.443Z,0.40
2022-12-08T05:02:50.691Z,0.50
2022-12-08T05:05:18.993Z,0.60
2022-12-08T05:07:47.187Z,0.67
2022-12-08T05:10:15.455Z,0.60
2022-12-08T05:12:43.614Z,0.83
2022-12-08T05:15:13.765Z,0.60
2022-12-08T05:17:43.437Z,1.07
2022-12-08T05:20:12.634Z,0.60
2022-12-08T05:22:40.934Z,0.57
2022-12-08T05:25:09.662Z,0.57
2022-12-08T05:27:38.198Z,0.60
2022-12-08T05:30:07.290Z,0.80
2022-12-08T05:32:35.768Z,0.70
2022-12-08T05:35:05.647Z,0.70
2022-12-08T05:37:34.068Z,1.13
2022-12-08T05:40:02.692Z,0.70
2022-12-08T05:42:31.205Z,0.60
2022-12-08T05:44:59.498Z,0.63
2022-12-08T05:47:31.833Z,0.57
2022-12-08T05:50:05.836Z,0.80
2022-12-08T05:52:34.477Z,0.40
2022-12-08T05:55:02.733Z,0.40
2022-12-08T05:57:31.044Z,0.50
2022-12-08T05:59:59.771Z,0.40
2022-12-08T06:02:28.293Z,0.30
2022-12-08T06:04:56.675Z,0.40
2022-12-08T06:07:26.429Z,0.57
2022-12-08T06:09:54.739Z,0.43
2022-12-08T06:12:23.071Z,0.43
2022-12-08T06:14:51.337Z,0.40
2022-12-08T06:17:19.631Z,1.17
2022-12-08T06:19:47.960Z,0.47
2022-12-08T06:22:16.239Z,0.50
2022-12-08T06:24:45.974Z,0.70
2022-12-08T06:27:14.304Z,0.67
2022-12-08T06:29:42.641Z,0.80
2022-12-08T06:32:10.982Z,0.47
2022-12-08T06:34:39.325Z,0.60
2022-12-08T06:37:07.599Z,0.60
2022-12-08T06:39:35.938Z,0.70
2022-12-08T06:42:23.009Z,0.67
2022-12-08T06:44:52.173Z,0.50
2022-12-08T06:47:26.201Z,0.57
2022-12-08T06:49:54.849Z,0.80
2022-12-08T06:52:23.136Z,0.70
2022-12-08T06:54:51.360Z,0.67
2022-12-08T06:57:21.282Z,0.80
2022-12-08T06:59:49.594Z,0.57
2022-12-08T07:02:18.310Z,0.80
2022-12-08T07:04:46.670Z,0.80
2022-12-08T07:07:14.848Z,0.70
2022-12-08T07:09:42.986Z,0.50
2022-12-08T07:12:11.244Z,0.70
2022-12-08T07:14:40.877Z,0.60
2022-12-08T07:17:09.208Z,0.70
2022-12-08T07:19:37.587Z,0.80
2022-12-08T07:22:05.898Z,0.70
2022-12-08T07:24:34.322Z,0.60
2022-12-08T07:27:02.679Z,0.80
2022-12-08T07:29:31.020Z,0.90
2022-12-08T07:32:00.637Z,0.63
2022-12-08T07:34:28.969Z,1.00
2022-12-08T07:36:57.255Z,0.90
2022-12-08T07:39:25.672Z,0.80
2022-12-08T07:41:54.058Z,0.60
2022-12-08T07:44:22.335Z,0.70
2022-12-08T07:46:50.660Z,1.07
2022-12-08T07:49:20.271Z,1.13
2022-12-08T07:51:48.579Z,1.10
2022-12-08T07:54:16.922Z,1.27
2022-12-08T07:56:45.638Z,1.20
2022-12-08T07:59:14.710Z,1.27
2022-12-08T08:01:45.397Z,1.00
2022-12-08T08:04:13.996Z,1.47
2022-12-08T08:06:43.611Z,0.67
2022-12-08T08:09:11.878Z,1.03
2022-12-08T08:11:40.212Z,1.50
2022-12-08T08:14:08.489Z,1.40
2022-12-08T08:16:38.706Z,0.93
2022-12-08T08:19:07.283Z,0.87
2022-12-08T08:21:50.969Z,0.90
2022-12-08T08:24:22.168Z,1.10
2022-12-08T08:26:50.453Z,1.20
2022-12-08T08:29:18.760Z,1.17
2022-12-08T08:31:47.108Z,1.17
2022-12-08T08:34:15.618Z,0.50
2022-12-08T08:36:43.955Z,0.60
2022-12-08T08:39:12.608Z,0.67
2022-12-08T08:41:42.246Z,0.60
2022-12-08T08:44:10.460Z,0.50
2022-12-08T08:46:38.791Z,0.50
2022-12-08T08:49:07.083Z,0.60
2022-12-08T08:51:35.740Z,0.80
2022-12-08T08:54:04.070Z,0.60
2022-12-08T08:56:32.374Z,0.63
2022-12-08T08:59:03.002Z,0.40
2022-12-08T09:01:31.764Z,0.40
2022-12-08T09:04:00.250Z,0.57
2022-12-08T09:06:29.172Z,0.50
2022-12-08T09:08:57.571Z,0.50
2022-12-08T09:11:25.845Z,0.57
2022-12-08T09:13:55.460Z,0.50
2022-12-08T09:16:25.346Z,0.43
2022-12-08T09:18:53.759Z,0.83
2022-12-08T09:21:23.510Z,0.60
2022-12-08T09:23:51.873Z,0.50
2022-12-08T09:26:22.374Z,0.80
2022-12-08T09:28:51.136Z,0.70
2022-12-08T09:31:20.651Z,0.87
2022-12-08T09:33:51.876Z,0.77
2022-12-08T09:36:20.328Z,1.00
2022-12-08T09:38:49.115Z,0.80
2022-12-08T09:41:18.605Z,0.57
2022-12-08T09:43:54.271Z,0.50
2022-12-08T09:46:22.598Z,0.77
2022-12-08T09:48:55.720Z,0.77
2022-12-08T09:51:25.794Z,0.63
2022-12-08T09:53:55.381Z,0.70
2022-12-08T09:56:24.558Z,0.80
2022-12-08T09:58:54.526Z,0.73
2022-12-08T10:01:23.539Z,0.67
2022-12-08T10:03:54.762Z,0.70
2022-12-08T10:06:23.810Z,0.80
2022-12-08T10:08:56.778Z,0.60
2022-12-08T10:11:28.606Z,0.80
2022-12-08T10:14:02.660Z,0.70
2022-12-08T10:16:33.401Z,0.90
2022-12-08T10:19:10.127Z,0.57
2022-12-08T10:21:38.807Z,0.80
2022-12-08T10:24:11.207Z,0.70
2022-12-08T10:26:39.527Z,0.70
2022-12-08T10:29:10.487Z,0.60
2022-12-08T10:31:38.899Z,0.80
2022-12-08T10:34:16.351Z,0.60
2022-12-08T10:36:52.028Z,0.70
2022-12-08T10:39:39.848Z,0.73
2022-12-08T10:42:18.330Z,0.60
2022-12-08T10:44:55.578Z,0.70
2022-12-08T10:47:25.125Z,0.67
2022-12-08T10:50:08.549Z,0.60
2022-12-08T10:52:41.143Z,0.40
2022-12-08T10:55:16.221Z,0.57
2022-12-08T10:57:44.545Z,0.60
2022-12-08T11:00:16.322Z,0.60
2022-12-08T11:03:01.641Z,0.60
2022-12-08T11:05:33.311Z,0.80
2022-12-08T11:08:03.438Z,0.80
2022-12-08T11:10:36.334Z,0.90
2022-12-08T11:13:06.262Z,1.10
2022-12-08T11:18:29.760Z,0.40
2022-12-08T11:20:59.278Z,0.50
2022-12-08T11:23:29.728Z,0.70
2022-12-08T11:25:59.758Z,0.70
2022-12-08T11:28:28.064Z,0.50
2022-12-08T11:30:58.759Z,0.50
2022-12-08T11:33:28.076Z,0.70
2022-12-08T11:35:58.265Z,0.60
2022-12-08T11:38:28.024Z,0.67
2022-12-08T11:40:58.967Z,0.90
2022-12-08T11:43:30.906Z,0.60
2022-12-08T11:46:01.769Z,0.80
2022-12-08T11:48:35.347Z,0.50
2022-12-08T11:51:07.558Z,0.80
2022-12-08T11:53:39.644Z,0.80
2022-12-08T11:56:12.086Z,0.83
2022-12-08T11:58:42.903Z,0.93
2022-12-08T12:01:18.667Z,0.90
2022-12-08T12:03:49.320Z,1.00
2022-12-08T12:09:15.618Z,1.00
2022-12-08T12:12:06.935Z,0.80
2022-12-08T12:14:46.423Z,1.00
2022-12-08T12:17:24.031Z,1.07
2022-12-08T12:19:53.245Z,1.10
2022-12-08T12:22:23.742Z,1.10
2022-12-08T12:24:53.872Z,0.90
2022-12-08T12:27:26.351Z,1.00
2022-12-08T12:29:57.494Z,1.07
2022-12-08T12:32:26.330Z,1.37
2022-12-08T12:34:56.469Z,1.50
2022-12-08T12:37:25.765Z,2.13
2022-12-08T12:39:57.137Z,1.50
2022-12-08T12:42:40.123Z,1.47
2022-12-08T12:45:29.427Z,1.50
2022-12-08T12:48:28.419Z,1.50
2022-12-08T12:50:56.920Z,2.40
2022-12-08T12:53:43.774Z,1.90
2022-12-08T12:56:13.267Z,2.07
2022-12-08T12:58:43.536Z,1.93
2022-12-08T13:01:30.400Z,1.70
2022-12-08T13:04:05.805Z,1.97
2022-12-08T13:06:35.444Z,1.60
2022-12-08T13:09:03.722Z,1.60
2022-12-08T13:11:32.057Z,1.60
2022-12-08T13:14:03.630Z,1.10
2022-12-08T13:16:34.347Z,1.10
2022-12-08T13:19:05.576Z,1.20
2022-12-08T13:21:34.742Z,1.00
2022-12-08T13:24:17.622Z,0.90
2022-12-08T13:26:46.946Z,0.80
2022-12-08T13:29:17.613Z,1.03
2022-12-08T13:31:50.672Z,0.70
2022-12-08T13:34:21.351Z,0.77
2022-12-08T13:36:52.687Z,0.90
2022-12-08T13:39:22.964Z,0.90
2022-12-08T13:41:55.064Z,0.80
2022-12-08T13:47:33.516Z,0.93
2022-12-08T13:56:59.685Z,0.73
2022-12-08T13:58:34.424Z,0.80
2022-12-08T14:01:06.902Z,0.80
2022-12-08T14:03:40.387Z,0.80
2022-12-08T14:06:15.781Z,0.90
2022-12-08T14:09:08.480Z,1.17
2022-12-08T14:11:34.891Z,0.97
2022-12-08T14:14:07.825Z,1.33
2022-12-08T14:16:40.944Z,1.10
2022-12-08T14:19:17.149Z,1.23
2022-12-08T14:21:48.300Z,1.10
2022-12-08T14:24:16.553Z,1.00
2022-12-08T14:26:47.324Z,1.30
2022-12-08T14:29:24.935Z,1.10
2022-12-08T14:31:56.054Z,1.10
2022-12-08T14:34:24.784Z,1.47
2022-12-08T14:36:53.600Z,1.37
2022-12-08T14:39:22.049Z,1.20
2022-12-08T14:42:00.720Z,1.10
2022-12-08T14:44:32.556Z,1.30
2022-12-08T14:47:09.960Z,0.93
2022-12-08T14:49:39.383Z,1.00
2022-12-08T14:52:10.999Z,0.90
2022-12-08T14:54:40.234Z,1.10
2022-12-08T14:57:08.922Z,1.10
2022-12-08T14:59:38.372Z,0.90
2022-12-08T15:02:26.468Z,1.00
2022-12-08T15:04:59.231Z,1.20
2022-12-08T15:07:28.715Z,0.80
2022-12-08T15:10:21.496Z,1.10
2022-12-08T15:13:03.338Z,0.90
2022-12-08T15:15:32.020Z,0.93
2022-12-08T15:18:03.483Z,1.10
2022-12-08T15:20:41.586Z,1.20
2022-12-08T15:23:19.577Z,1.00
2022-12-08T15:25:47.819Z,1.00
2022-12-08T15:28:17.622Z,0.90
2022-12-08T15:30:45.949Z,1.00
2022-12-08T15:33:15.620Z,0.90
2022-12-08T15:35:44.253Z,1.00
2022-12-08T15:38:18.566Z,1.17
2022-12-08T15:40:46.818Z,0.73
2022-12-08T15:43:15.125Z,0.90
2022-12-08T15:45:55.040Z,1.00
2022-12-08T15:48:29.846Z,0.90
2022-12-08T15:50:58.450Z,0.90
2022-12-08T15:53:26.776Z,0.90
2022-12-08T15:56:26.362Z,0.90
2022-12-08T15:58:59.609Z,1.50
2022-12-08T16:01:28.045Z,1.40
2022-12-08T16:09:36.365Z,1.10
2022-12-08T16:12:22.801Z,1.00
2022-12-08T16:17:39.901Z,1.20
2022-12-08T16:20:13.984Z,1.43
2022-12-08T16:23:08.056Z,1.27
2022-12-08T16:25:52.608Z,1.63
2022-12-08T16:28:52.096Z,1.60
2022-12-08T16:31:13.071Z,1.77
2022-12-08T16:33:42.618Z,2.03
2022-12-08T16:36:12.503Z,1.73
2022-12-08T16:38:40.664Z,1.90
2022-12-08T16:41:26.889Z,1.83
2022-12-08T16:43:54.998Z,1.60
2022-12-08T16:46:25.929Z,1.53
2022-12-08T16:48:54.296Z,1.60
2022-12-08T16:51:27.101Z,1.60
2022-12-08T16:53:56.855Z,1.80
2022-12-08T16:56:31.882Z,1.70
2022-12-08T16:59:00.969Z,1.50
2022-12-08T17:01:29.171Z,1.70
2022-12-08T17:06:47.088Z,1.63
2022-12-08T17:09:15.429Z,1.57
2022-12-08T17:11:44.069Z,2.07
2022-12-08T17:14:12.670Z,1.60
2022-12-08T17:16:41.156Z,2.10
2022-12-08T17:19:09.643Z,2.10
2022-12-08T17:21:37.962Z,1.70
2022-12-08T17:24:07.781Z,1.70
2022-12-08T17:26:35.993Z,1.80
2022-12-08T17:29:04.643Z,1.80
2022-12-08T17:31:33.346Z,1.90
2022-12-08T17:34:02.000Z,1.80
2022-12-08T17:36:30.304Z,1.87
2022-12-08T17:39:00.340Z,2.10
2022-12-08T17:41:30.270Z,2.00
2022-12-08T17:43:58.758Z,1.70
2022-12-08T17:46:27.210Z,1.70
2022-12-08T17:48:55.625Z,2.20
2022-12-08T17:51:25.366Z,1.70
2022-12-08T17:53:53.604Z,1.93
2022-12-08T17:56:22.891Z,2.10
2022-12-08T17:58:54.813Z,2.40
2022-12-08T18:01:23.909Z,2.00
2022-12-08T18:03:52.501Z,2.20
2022-12-08T18:06:20.753Z,2.43
2022-12-08T18:08:49.029Z,2.87
2022-12-08T18:11:22.899Z,2.40
2022-12-08T18:13:52.799Z,2.03
2022-12-08T18:16:22.266Z,2.00
2022-12-08T18:18:50.924Z,2.17
2022-12-08T18:21:23.267Z,2.20
2022-12-08T18:23:52.395Z,1.80
2022-12-08T18:26:20.665Z,2.13
2022-12-08T18:28:49.040Z,2.20
2022-12-08T18:31:21.065Z,2.83
2022-12-08T18:33:50.129Z,2.00
2022-12-08T18:36:19.866Z,2.50
2022-12-08T18:38:48.127Z,2.37
2022-12-08T18:41:18.122Z,1.90
2022-12-08T18:46:23.622Z,2.33
2022-12-08T18:48:52.374Z,2.80
2022-12-08T18:51:21.366Z,3.13
2022-12-08T18:53:49.557Z,4.00
2022-12-08T18:56:24.881Z,3.53
2022-12-08T18:58:53.025Z,4.40
2022-12-08T19:01:21.318Z,4.00
2022-12-08T19:04:19.930Z,4.30
2022-12-08T19:06:39.987Z,3.23
2022-12-08T19:09:08.414Z,2.50
2022-12-08T19:11:36.603Z,1.93
2022-12-08T19:14:04.758Z,1.70
2022-12-08T19:16:32.974Z,1.90
2022-12-08T19:19:02.655Z,1.60
2022-12-08T19:21:30.911Z,1.50
2022-12-08T19:23:59.960Z,1.30
2022-12-08T19:26:28.398Z,1.43
2022-12-08T19:28:56.817Z,1.30
2022-12-08T19:31:25.010Z,1.70
2022-12-08T19:33:53.248Z,1.70
2022-12-08T19:36:23.641Z,1.67
2022-12-08T19:39:09.541Z,1.40
2022-12-08T19:41:56.106Z,1.70
2022-12-08T19:44:42.895Z,1.20
2022-12-08T19:47:11.132Z,1.50
2022-12-08T19:49:39.380Z,1.17
2022-12-08T19:52:09.245Z,1.50
2022-12-08T19:54:37.703Z,1.80
2022-12-08T19:57:06.039Z,1.37
2022-12-08T19:59:34.303Z,1.50
2022-12-08T20:02:02.567Z,1.80
2022-12-08T20:04:30.807Z,1.90
2022-12-08T20:06:59.378Z,2.23
2022-12-08T20:09:28.885Z,2.57
2022-12-08T20:11:57.025Z,2.90
2022-12-08T20:14:25.294Z,3.10
2022-12-08T20:16:53.614Z,3.93
2022-12-08T20:19:21.785Z,4.63
2022-12-08T20:21:49.964Z,5.10
2022-12-08T20:24:18.314Z,5.97
2022-12-08T20:26:47.816Z,6.30
2022-12-08T20:29:17.004Z,6.10
2022-12-08T20:31:45.451Z,6.70
2022-12-08T20:34:15.338Z,6.67
2022-12-08T20:36:43.546Z,7.23
2022-12-08T20:39:13.676Z,7.40
2022-12-08T20:41:42.432Z,7.60
2022-12-08T20:44:12.045Z,8.37
2022-12-08T20:46:43.755Z,7.90
2022-12-08T20:49:14.648Z,7.83
2022-12-08T20:51:44.193Z,8.03
2022-12-08T20:54:12.776Z,7.10
2022-12-08T20:56:47.954Z,6.60
2022-12-08T20:59:18.654Z,6.90
2022-12-08T21:01:46.982Z,7.30
2022-12-08T21:04:15.524Z,7.53
2022-12-08T21:06:43.976Z,7.67
2022-12-08T21:09:12.401Z,7.97
2022-12-08T21:11:40.948Z,7.97
2022-12-08T21:14:09.190Z,8.10
2022-12-08T21:16:38.805Z,8.10
2022-12-08T21:19:07.314Z,8.47
2022-12-08T21:21:35.537Z,8.50
2022-12-08T21:24:04.572Z,8.93
2022-12-08T21:26:32.838Z,9.43
2022-12-08T21:29:01.166Z,8.77
2022-12-08T21:31:31.835Z,9.13
2022-12-08T21:34:02.572Z,8.67
2022-12-08T21:36:30.772Z,9.40
2022-12-08T21:39:00.718Z,8.80
2022-12-08T21:41:46.801Z,9.20
2022-12-08T21:44:18.694Z,10.40
2022-12-08T21:46:47.093Z,10.13
2022-12-08T21:49:20.537Z,10.00
2022-12-08T21:51:48.769Z,9.23
2022-12-08T21:54:19.170Z,10.33
2022-12-08T21:56:48.679Z,9.97
2022-12-08T21:59:17.719Z,10.13
2022-12-08T22:01:46.173Z,10.07
2022-12-08T22:04:17.644Z,9.83
2022-12-08T22:06:47.445Z,9.33
2022-12-08T22:09:15.908Z,9.90
2022-12-08T22:11:44.574Z,9.57
2022-12-08T22:14:15.179Z,9.10
2022-12-08T22:16:44.192Z,8.90
2022-12-08T22:19:13.108Z,9.60
2022-12-08T22:21:47.728Z,9.43
2022-12-08T22:24:17.204Z,9.80
2022-12-08T22:26:45.356Z,10.50
2022-12-08T22:29:13.457Z,12.87
2022-12-08T22:31:41.670Z,12.53
2022-12-08T22:34:10.113Z,13.63
2022-12-08T22:36:38.368Z,13.73
2022-12-08T22:39:06.689Z,12.03
2022-12-08T22:41:36.205Z,12.67
2022-12-08T22:44:07.147Z,11.70
2022-12-08T22:46:35.896Z,12.27
2022-12-08T22:49:04.132Z,12.10
2022-12-08T22:51:32.280Z,13.13
2022-12-08T22:54:00.398Z,13.53
2022-12-08T22:56:28.524Z,13.27
2022-12-08T22:58:58.001Z,12.40
2022-12-08T23:01:27.784Z,11.80
2022-12-08T23:03:56.650Z,13.13
2022-12-08T23:06:25.513Z,12.93
2022-12-08T23:08:54.135Z,12.57
2022-12-08T23:11:23.019Z,14.93
2022-12-08T23:13:51.295Z,15.40
2022-12-08T23:16:21.138Z,16.00
2022-12-08T23:18:49.664Z,16.80
2022-12-08T23:21:18.963Z,18.37
2022-12-08T23:23:47.671Z,17.77
2022-12-08T23:26:17.504Z,17.43
2022-12-08T23:28:45.757Z,16.50
2022-12-08T23:31:14.010Z,16.37
2022-12-08T23:33:43.754Z,14.90
2022-12-08T23:36:12.793Z,15.07
2022-12-08T23:38:41.032Z,15.67
2022-12-08T23:41:10.073Z,15.87
2022-12-08T23:43:38.377Z,15.30
2022-12-08T23:46:06.623Z,16.63
2022-12-08T23:48:35.649Z,16.03
2022-12-08T23:51:05.500Z,15.90
2022-12-08T23:53:34.102Z,15.97
2022-12-08T23:56:02.808Z,16.83
2022-12-08T23:58:31.626Z,16.97
